Latest Weather Observations for Cabramurra

IDN60901

Issued at 6:21 am EST Friday 30 September 2016 (issued every 10 minutes, with the page automatically refreshed every 10 minutes)

About weather observations | Map of Canberra area stations | Latest observations for Canberra area | Other Formats
Station Details ID: 072161 Name: CABRAMURRA SMHEA AWS Lat: -35.94 Lon: 148.38 Height: 1482.4 m
Data from the previous 72 hours. | See also: Recent months at Cabramurra
Date/Time
EST
Temp
°C
App
Temp
°C
Dew
Point
°C
Rel
Hum
%
Delta-T
°C
Wind Press
QNH
hPa
Press
MSL
hPa
Rain since
9am
mm
Dir  Spd
km/h
Gust
km/h
Spd
kts
Gust
kts
30/06:00am -0.9 -7.2 -1.0 99 0.0 N 22 32 12 17 - - 23.0
30/05:30am -1.0 -8.5 -1.1 99 0.0 N 28 37 15 20 - - 22.6
30/05:00am -1.1 -8.6 -1.2 99 0.0 N 28 41 15 22 - - 22.0
30/04:30am -1.1 -8.2 -1.2 99 0.0 N 26 39 14 21 - - 21.4
30/04:00am -1.2 -7.2 -1.3 99 0.0 N 20 30 11 16 - - 20.8
30/03:30am -1.2 -7.2 -1.3 99 0.0 N 20 28 11 15 - - 20.2
30/03:00am -1.0 -6.7 -1.1 99 0.0 N 19 26 10 14 - - 19.2
30/02:30am -0.8 -6.1 -0.9 99 0.0 N 17 28 9 15 - - 18.2
30/02:00am -0.6 -5.5 -0.7 99 0.0 N 15 22 8 12 - - 17.2
30/01:30am -0.5 -5.0 -0.6 99 0.0 N 13 17 7 9 - - 16.4
30/01:00am -0.7 -5.6 -0.8 99 0.0 NNW 15 24 8 13 - - 16.0
30/12:30am -0.5 -6.2 -0.6 99 0.0 NNW 19 26 10 14 - - 15.6
30/12:00am -0.5 -6.7 -0.6 99 0.0 NNW 22 30 12 16 - - 15.2
 
Date/Time
EST
Temp
°C
App
Temp
°C
Dew
Point
°C
Rel
Hum
%
Delta-T
°C
Wind Press
QNH
hPa
Press
MSL
hPa
Rain since
9am
mm
Dir  Spd
km/h
Gust
km/h
Spd
kts
Gust
kts
29/11:30pm -0.5 -6.7 -0.6 99 0.0 NNW 22 30 12 16 - - 14.4
29/11:00pm -1.0 -6.7 -1.1 99 0.0 WNW 19 26 10 14 - - 13.2
29/10:30pm -0.5 -8.6 -0.6 99 0.0 NNW 32 43 17 23 - - 12.0
29/10:00pm -0.5 -8.6 -0.6 99 0.0 NNW 32 50 17 27 - - 11.4
29/09:30pm -0.6 -9.7 -0.7 99 0.0 NW 37 56 20 30 - - 11.2
29/09:26pm -0.6 -9.3 -0.7 99 0.0 NW 35 56 19 30 - - 11.2
29/09:00pm -0.7 -9.1 -0.8 99 0.0 NW 33 46 18 25 - - 11.0
29/08:45pm -0.8 -9.2 -0.9 99 0.0 NW 33 52 18 28 - - 11.0
29/08:30pm -0.7 -9.4 -0.8 99 0.0 WNW 35 48 19 26 - - 10.8
29/08:13pm -0.5 -7.9 -0.6 99 0.0 NW 28 48 15 26 - - 10.4
29/08:00pm -0.5 -8.6 -0.6 99 0.0 NW 32 46 17 25 - - 10.0
29/07:30pm -0.5 -6.4 -0.6 99 0.0 NW 20 30 11 16 - - 9.6
29/07:00pm -0.5 -9.2 -0.6 99 0.0 NW 35 59 19 32 - - 8.6
29/06:48pm -0.2 -7.5 -0.3 99 0.0 WNW 28 46 15 25 - - 8.0
29/06:30pm 1.5 -4.1 -0.3 88 0.7 NW 19 28 10 15 - - 7.6
29/06:00pm 1.7 -5.0 -1.2 81 1.1 NNW 24 43 13 23 - - 7.6
29/05:30pm 1.7 -4.0 0.5 92 0.5 NNW 20 30 11 16 - - 7.6
29/05:00pm 1.8 -3.7 1.7 99 0.0 NW 20 33 11 18 - - 7.6
29/04:30pm 1.5 -4.8 1.4 99 0.0 WNW 24 39 13 21 - - 7.6
29/04:00pm 1.6 -5.1 1.5 99 0.0 NW 26 39 14 21 - - 7.6
29/03:32pm 0.0 -8.6 -0.1 99 0.0 NW 35 56 19 30 - - 7.6
29/03:30pm 0.0 -9.4 -0.1 99 0.0 NW 39 56 21 30 - - 7.6
29/03:11pm 0.5 -6.7 0.4 99 0.0 NW 28 67 15 36 - - 7.6
29/03:00pm 1.4 -4.2 1.3 99 0.0 NW 20 30 11 16 - - 7.4
29/02:30pm 0.5 -4.3 0.4 99 0.0 NW 15 35 8 19 - - 7.4
29/02:00pm -0.1 -7.8 -0.2 99 0.0 WNW 30 54 16 29 - - 7.4
29/01:30pm 0.6 -8.7 0.5 99 0.0 WNW 39 61 21 33 - - 6.6
29/01:15pm 1.5 -6.0 1.4 99 0.0 NW 30 54 16 29 - - 6.4
29/01:00pm 3.6 -3.4 2.1 90 0.7 NNW 28 41 15 22 - - 6.2
29/12:36pm 3.1 -4.0 1.2 87 0.8 NNW 28 46 15 25 - - 6.0
29/12:30pm 3.5 -2.9 3.1 97 0.2 NW 26 41 14 22 - - 6.0
29/12:07pm 3.0 -3.9 2.7 98 0.1 WNW 28 56 15 30 - - 6.0
29/12:00pm 3.3 -3.5 3.2 99 0.0 NW 28 43 15 23 - - 6.0
29/11:43am 2.8 -4.5 2.7 99 0.0 NW 30 52 16 28 - - 6.0
29/11:30am 3.4 -2.2 3.3 99 0.0 NNW 22 35 12 19 - - 6.0
29/11:00am 2.3 -2.9 2.2 99 0.0 NNW 19 30 10 16 - - 6.0
29/10:43am 2.3 -6.0 2.2 99 0.0 NW 35 65 19 35 - - 5.8
29/10:30am 2.8 -6.2 2.7 99 0.0 NW 39 57 21 31 - - 5.4
29/10:09am 4.4 -2.2 4.3 99 0.0 NW 28 52 15 28 - - 4.8
29/10:00am 4.9 -1.2 4.8 99 0.0 NNW 26 41 14 22 - - 4.6
29/09:41am 4.5 -2.0 4.5 100 0.0 NW 28 70 15 38 - - 4.4
29/09:40am 4.7 -1.0 4.7 100 0.0 NNW 24 56 13 30 - - 4.2
29/09:30am 4.8 -0.9 4.8 100 0.0 N 24 39 13 21 - - 2.0
29/09:01am 4.9 -1.6 4.9 100 0.0 N 28 48 15 26 - - 0.0
29/09:00am 5.0 -1.4 5.0 100 0.0 N 28 41 15 22 - - 13.2
29/08:35am 5.0 -2.8 5.0 100 0.0 NNE 35 56 19 30 - - 10.6
29/08:30am 5.0 -2.2 5.0 100 0.0 NNE 32 48 17 26 - - 10.0
29/08:00am 5.0 -2.2 4.9 99 0.0 NNE 32 44 17 24 - - 8.8
29/07:30am 5.2 -3.3 5.1 99 0.0 NNE 39 57 21 31 - - 7.8
29/07:08am 5.3 -1.9 5.2 99 0.0 NNE 32 50 17 27 - - 6.0
29/07:00am 5.3 -2.8 5.2 99 0.0 NNE 37 59 20 32 - - 5.6
29/06:30am 5.3 -4.9 5.2 99 0.0 NNE 48 72 26 39 - - 4.6
29/06:00am 5.3 -5.7 5.2 99 0.0 NNE 52 80 28 43 - - 3.8
29/05:30am 4.7 -6.0 4.6 99 0.0 NNE 50 70 27 38 - - 2.6
29/05:00am 4.6 -4.8 4.5 99 0.0 NNE 43 67 23 36 - - 0.8
29/04:30am 4.5 -4.9 4.4 99 0.0 NNE 43 69 23 37 - - 0.4
29/04:00am 4.8 -3.1 4.5 98 0.1 NNE 35 56 19 30 - - 0.0
29/03:38am 5.2 -1.9 3.7 90 0.7 N 30 48 16 26 - - 0.0
29/03:30am 5.4 -1.4 2.9 84 1.1 NNE 28 39 15 21 - - 0.0
29/03:04am 5.4 -1.6 1.7 77 1.6 NNE 28 48 15 26 - - 0.0
29/03:00am 5.4 -1.3 1.7 77 1.6 N 26 41 14 22 - - 0.0
29/02:30am 5.6 -1.9 1.3 74 1.9 NNE 30 43 16 23 - - 0.0
29/02:00am 5.7 -2.7 1.8 76 1.7 N 35 52 19 28 - - 0.0
29/01:30am 5.6 -3.1 1.9 77 1.6 NNE 37 57 20 31 - - 0.0
29/01:00am 5.4 -4.2 1.3 75 1.8 NNE 41 59 22 32 - - 0.0
29/12:32am 5.1 -4.2 0.5 72 2.0 NNE 39 57 21 31 - - 0.0
29/12:30am 5.0 -4.3 0.8 74 1.8 NNE 39 56 21 30 - - 0.0
29/12:03am 5.5 -3.7 1.4 75 1.8 NNE 39 61 21 33 - - 0.0
29/12:00am 5.2 -3.5 1.7 78 1.5 NNE 37 50 20 27 - - 0.0
 
Date/Time
EST
Temp
°C
App
Temp
°C
Dew
Point
°C
Rel
Hum
%
Delta-T
°C
Wind Press
QNH
hPa
Press
MSL
hPa
Rain since
9am
mm
Dir  Spd
km/h
Gust
km/h
Spd
kts
Gust
kts
28/11:44pm 5.3 -3.4 2.0 79 1.5 NNE 37 56 20 30 - - 0.0
28/11:30pm 5.6 -3.8 2.4 80 1.4 NNE 41 56 22 30 - - 0.0
28/11:00pm 5.5 -4.2 2.8 83 1.2 NNE 43 67 23 36 - - 0.0
28/10:30pm 5.5 -3.8 2.7 82 1.3 NNE 41 63 22 34 - - 0.0
28/10:00pm 5.6 -2.7 1.9 77 1.6 NNE 35 61 19 33 - - 0.0
28/09:30pm 6.0 -3.2 1.2 71 2.1 NNE 39 57 21 31 - - 0.0
28/09:07pm 6.0 -3.3 0.8 69 2.3 NNE 39 61 21 33 - - 0.0
28/09:00pm 5.9 -3.4 0.9 70 2.2 NNE 39 54 21 29 - - 0.0
28/08:30pm 5.7 -3.0 -0.4 65 2.6 NNE 35 50 19 27 - - 0.0
28/08:00pm 6.0 -2.9 -1.9 57 3.2 NE 35 54 19 29 - - 0.0
28/07:31pm 5.9 -2.6 -1.5 59 3.0 NE 33 54 18 29 - - 0.0
28/07:30pm 5.9 -2.3 -1.3 60 3.0 NNE 32 46 17 25 - - 0.0
28/07:00pm 6.0 0.2 0.1 66 2.5 NNE 20 33 11 18 - - 0.0
28/06:30pm 6.4 1.0 1.1 69 2.3 NNE 19 28 10 15 - - 0.0
28/06:00pm 6.8 2.2 3.9 82 1.4 NE 17 28 9 15 - - 0.0
28/05:30pm 6.8 3.5 4.6 86 1.0 N 11 15 6 8 - - 0.0
28/05:00pm 7.6 3.9 4.7 82 1.4 N 13 17 7 9 - - 0.0
28/04:30pm 8.3 3.7 3.6 72 2.2 NNW 17 26 9 14 - - 0.0
28/04:00pm 9.6 5.2 2.9 63 3.1 N 15 22 8 12 - - 0.0
28/03:30pm 9.7 4.9 2.8 62 3.2 NW 17 26 9 14 - - 0.0
28/03:00pm 9.8 5.2 3.8 66 2.9 NW 17 24 9 13 - - 0.0
28/02:30pm 9.7 5.4 3.4 65 3.0 NW 15 26 8 14 - - 0.0
28/02:00pm 10.1 5.9 3.8 65 3.0 WNW 15 22 8 12 - - 0.0
28/01:30pm 8.8 4.7 2.4 64 3.0 WNW 13 20 7 11 - - 0.0
28/01:00pm 9.1 4.8 3.1 66 2.8 NW 15 22 8 12 - - 0.0
28/12:30pm 9.2 5.0 3.8 69 2.6 WNW 15 24 8 13 - - 0.0
28/12:00pm 7.8 3.4 2.7 70 2.3 WNW 15 24 8 13 - - 0.0
28/11:30am 8.7 4.3 2.7 66 2.8 NW 15 20 8 11 - - 0.0
28/11:00am 8.0 4.3 2.3 67 2.6 NW 11 17 6 9 - - 0.0
28/10:30am 7.5 3.8 2.2 69 2.4 WNW 11 15 6 8 - - 0.0
28/10:00am 6.5 2.8 0.2 64 2.7 W 9 13 5 7 - - 0.0
28/09:30am 5.6 1.3 -1.5 60 2.9 WSW 11 15 6 8 - - 0.0
28/09:00am 5.2 1.0 -1.0 64 2.5 S 11 17 6 9 - - 0.2
28/08:30am 4.2 -0.4 -0.8 70 2.0 SSW 13 19 7 10 - - 0.2
28/08:00am 3.3 -0.8 -0.3 77 1.5 S 11 13 6 7 - - 0.2
28/07:30am 2.2 -1.8 0.4 88 0.7 S 11 15 6 8 - - 0.2
28/07:00am 1.4 -3.0 0.2 92 0.5 S 13 17 7 9 - - 0.2
28/06:30am 0.7 -2.9 0.4 98 0.1 SSW 9 15 5 8 - - 0.2
28/06:00am 0.4 -3.6 0.3 99 0.0 SSW 11 15 6 8 - - 0.2
28/05:30am 0.6 -3.8 0.5 99 0.0 SSW 13 20 7 11 - - 0.2
28/05:00am 0.0 -3.7 -0.1 99 0.0 S 9 15 5 8 - - 0.2
28/04:30am 0.4 -4.4 0.3 99 0.0 WSW 15 20 8 11 - - 0.2
28/04:00am 0.5 -4.3 0.4 99 0.0 SW 15 20 8 11 - - 0.2
28/03:30am 0.4 -4.4 0.3 99 0.0 SSW 15 20 8 11 - - 0.2
28/03:00am 0.6 -3.0 0.5 99 0.0 W 9 13 5 7 - - 0.2
28/02:30am 0.7 -3.7 0.6 99 0.0 WSW 13 17 7 9 - - 0.2
28/02:00am 0.7 -4.4 0.6 99 0.0 SW 17 22 9 12 - - 0.2
28/01:30am 0.7 -3.3 0.6 99 0.0 WSW 11 17 6 9 - - 0.2
28/01:00am 0.7 -3.7 0.6 99 0.0 WSW 13 20 7 11 - - 0.2
28/12:30am 0.7 -2.9 0.6 99 0.0 WSW 9 17 5 9 - - 0.2
28/12:00am 0.6 -2.6 0.5 99 0.0 WSW 7 11 4 6 - - 0.2
 
Date/Time
EST
Temp
°C
App
Temp
°C
Dew
Point
°C
Rel
Hum
%
Delta-T
°C
Wind Press
QNH
hPa
Press
MSL
hPa
Rain since
9am
mm
Dir  Spd
km/h
Gust
km/h
Spd
kts
Gust
kts
27/11:30pm 0.7 -1.6 0.7 100 0.0 W 2 7 1 4 - - 0.2
27/11:00pm 0.7 -2.9 0.7 100 0.0 WNW 9 13 5 7 - - 0.2
27/10:30pm 0.7 -3.3 0.6 99 0.0 W 11 15 6 8 - - 0.2
27/10:00pm 0.7 -4.4 0.6 99 0.0 W 17 22 9 12 - - 0.2
27/09:30pm 0.7 -4.0 0.6 99 0.0 W 15 20 8 11 - - 0.2
27/09:00pm 0.8 -3.9 0.7 99 0.0 W 15 24 8 13 - - 0.2
27/08:30pm 0.9 -4.2 0.8 99 0.0 W 17 24 9 13 - - 0.2
27/08:00pm 1.0 -4.5 0.9 99 0.0 W 19 26 10 14 - - 0.2
27/07:30pm 1.0 -4.1 0.9 99 0.0 W 17 28 9 15 - - 0.2
27/07:00pm 1.2 -3.8 1.1 99 0.0 W 17 26 9 14 - - 0.2
27/06:30pm 1.3 -3.4 1.2 99 0.0 WSW 15 22 8 12 - - 0.2
27/06:00pm 1.3 -3.0 1.2 99 0.0 W 13 20 7 11 - - 0.2
27/05:30pm 1.2 -3.8 1.1 99 0.0 WSW 17 24 9 13 - - 0.2
27/05:00pm 1.0 -4.1 0.9 99 0.0 WSW 17 26 9 14 - - 0.2
27/04:30pm 1.2 -3.8 1.1 99 0.0 WSW 17 30 9 16 - - 0.2
27/04:00pm 1.0 -4.2 0.3 95 0.3 W 17 26 9 14 - - 0.2
27/03:30pm 1.1 -4.1 0.2 94 0.4 W 17 28 9 15 - - 0.2
27/03:00pm 1.1 -5.8 0.2 94 0.4 W 26 39 14 21 - - 0.2
27/02:30pm 1.2 -5.3 0.0 92 0.5 W 24 35 13 19 - - 0.2
27/02:00pm 1.3 -4.5 0.0 91 0.5 W 20 35 11 19 - - 0.2
27/01:30pm 1.0 -4.8 0.0 93 0.4 W 20 32 11 17 - - 0.2
27/01:00pm 0.9 -5.3 -0.1 93 0.4 W 22 35 12 19 - - 0.2
27/12:32pm 0.8 -6.5 -0.2 93 0.4 W 28 46 15 25 - - 0.2
27/12:30pm 0.8 -6.1 -0.1 94 0.4 W 26 44 14 24 - - 0.2
27/12:12pm 0.6 -6.7 0.0 96 0.2 W 28 46 15 25 - - 0.2
27/12:00pm 1.5 -5.2 1.4 99 0.0 W 26 39 14 21 - - 0.2
27/11:30am 0.2 -6.7 0.1 99 0.0 W 26 43 14 23 - - 0.2
27/11:08am 0.1 -7.2 0.0 99 0.0 W 28 50 15 27 - - 0.2
27/11:00am 0.0 -7.3 -0.1 99 0.0 W 28 43 15 23 - - 0.0
27/10:30am 0.2 -7.8 0.1 99 0.0 W 32 52 17 28 - - 0.0
27/10:01am -0.7 -8.1 -0.8 99 0.0 W 28 46 15 25 - - 0.0
27/10:00am -0.6 -8.0 -0.7 99 0.0 W 28 44 15 24 - - 0.0
27/09:30am -0.7 -7.7 -0.8 99 0.0 W 26 35 14 19 - - 0.0
27/09:00am -0.1 -7.4 -0.2 99 0.0 W 28 43 15 23 - - 6.6
27/08:38am -0.8 -9.0 -0.9 99 0.0 WNW 32 50 17 27 - - 6.6
27/08:30am -0.8 -9.2 -0.9 99 0.0 WNW 33 50 18 27 - - 6.6
27/08:27am -0.9 -8.7 -1.0 99 0.0 WNW 30 50 16 27 - - 6.6
27/08:00am -0.8 -9.0 -0.9 99 0.0 WNW 32 44 17 24 - - 6.6
27/07:30am -0.8 -9.0 -0.9 99 0.0 W 32 50 17 27 - - 6.6
27/07:00am 0.0 -8.1 -0.1 99 0.0 WNW 32 54 17 29 - - 6.6
27/06:30am 0.4 -8.9 0.4 100 0.0 WNW 39 57 21 31 - - 6.6

Latest Capital City Observations: Canberra | Sydney | Melbourne | Brisbane | Adelaide | Perth | Hobart | Darwin

Other Formats:

Comma delimited format used in spreadsheet applications
http://www.bom.gov.au/fwo/IDN60903/IDN60903.95916.axf

JavaScript Object Notation format (JSON) in row-major order
http://www.bom.gov.au/fwo/IDN60903/IDN60903.95916.json